sensor_id;sensor_type;location;lat;lon;timestamp;pressure;altitude;pressure_sealevel;temperature;humidity
40245;BME280;25963;42.694;23.600;2022-09-24T00:00:11;95587.00;;;5.48;89.23
40245;BME280;25963;42.694;23.600;2022-09-24T00:02:37;95579.28;;;5.32;91.21
40245;BME280;25963;42.694;23.600;2022-09-24T00:05:02;95575.22;;;5.30;91.69
40245;BME280;25963;42.694;23.600;2022-09-24T00:07:28;95573.00;;;5.41;90.68
40245;BME280;25963;42.694;23.600;2022-09-24T00:09:53;95569.44;;;5.34;90.88
40245;BME280;25963;42.694;23.600;2022-09-24T00:12:18;95580.44;;;5.53;90.35
40245;BME280;25963;42.694;23.600;2022-09-24T00:14:44;95570.56;;;5.63;89.36
40245;BME280;25963;42.694;23.600;2022-09-24T00:17:09;95571.25;;;5.57;89.41
40245;BME280;25963;42.694;23.600;2022-09-24T00:19:35;95565.59;;;5.68;88.46
40245;BME280;25963;42.694;23.600;2022-09-24T00:22:00;95573.03;;;5.56;88.77
40245;BME280;25963;42.694;23.600;2022-09-24T00:24:26;95574.44;;;5.44;89.76
40245;BME280;25963;42.694;23.600;2022-09-24T00:27:09;95568.59;;;5.42;89.81
40245;BME280;25963;42.694;23.600;2022-09-24T00:29:35;95571.03;;;5.43;90.00
40245;BME280;25963;42.694;23.600;2022-09-24T00:32:02;95577.81;;;5.53;89.44
40245;BME280;25963;42.694;23.600;2022-09-24T00:34:28;95578.88;;;5.43;89.45
40245;BME280;25963;42.694;23.600;2022-09-24T00:36:53;95574.34;;;5.37;89.84
40245;BME280;25963;42.694;23.600;2022-09-24T00:39:19;95563.75;;;5.31;89.79
40245;BME280;25963;42.694;23.600;2022-09-24T00:41:45;95573.53;;;5.37;89.73
40245;BME280;25963;42.694;23.600;2022-09-24T00:44:46;95573.47;;;5.22;90.57
40245;BME280;25963;42.694;23.600;2022-09-24T00:50:16;95576.22;;;4.97;90.73
40245;BME280;25963;42.694;23.600;2022-09-24T00:52:49;95572.97;;;4.95;90.11
40245;BME280;25963;42.694;23.600;2022-09-24T00:55:16;95567.69;;;5.03;89.14
40245;BME280;25963;42.694;23.600;2022-09-24T00:57:45;95561.94;;;5.08;89.05
40245;BME280;25963;42.694;23.600;2022-09-24T01:00:14;95565.44;;;5.00;89.08
40245;BME280;25963;42.694;23.600;2022-09-24T01:02:43;95562.13;;;5.07;89.18
40245;BME280;25963;42.694;23.600;2022-09-24T01:05:11;95556.63;;;4.93;89.36
40245;BME280;25963;42.694;23.600;2022-09-24T01:07:36;95564.34;;;4.87;89.30
40245;BME280;25963;42.694;23.600;2022-09-24T01:10:03;95567.16;;;4.85;88.96
40245;BME280;25963;42.694;23.600;2022-09-24T01:12:54;95559.19;;;4.39;91.52
40245;BME280;25963;42.694;23.600;2022-09-24T01:15:30;95554.00;;;4.31;91.56
40245;BME280;25963;42.694;23.600;2022-09-24T01:32:03;95561.88;;;4.62;90.54
40245;BME280;25963;42.694;23.600;2022-09-24T01:34:43;95559.13;;;4.55;90.66
40245;BME280;25963;42.694;23.600;2022-09-24T01:37:13;95574.63;;;4.57;91.08
40245;BME280;25963;42.694;23.600;2022-09-24T01:39:40;95568.72;;;4.63;90.86
40245;BME280;25963;42.694;23.600;2022-09-24T01:42:09;95571.72;;;4.52;90.95
40245;BME280;25963;42.694;23.600;2022-09-24T01:44:35;95569.25;;;4.50;90.65
40245;BME280;25963;42.694;23.600;2022-09-24T01:47:04;95566.50;;;4.52;90.38
40245;BME280;25963;42.694;23.600;2022-09-24T01:49:30;95576.16;;;4.43;90.52
40245;BME280;25963;42.694;23.600;2022-09-24T01:51:57;95580.28;;;4.29;91.65
40245;BME280;25963;42.694;23.600;2022-09-24T01:54:33;95577.00;;;4.35;91.43
40245;BME280;25963;42.694;23.600;2022-09-24T01:59:38;95574.94;;;4.15;92.85
40245;BME280;25963;42.694;23.600;2022-09-24T02:02:32;95566.47;;;4.04;93.41
40245;BME280;25963;42.694;23.600;2022-09-24T02:05:09;95572.66;;;4.11;93.34
40245;BME280;25963;42.694;23.600;2022-09-24T02:07:44;95572.84;;;4.02;93.83
40245;BME280;25963;42.694;23.600;2022-09-24T02:10:16;95562.59;;;3.92;94.96
40245;BME280;25963;42.694;23.600;2022-09-24T02:12:46;95580.81;;;4.08;95.32
40245;BME280;25963;42.694;23.600;2022-09-24T02:15:23;95579.03;;;4.09;94.92
40245;BME280;25963;42.694;23.600;2022-09-24T02:17:54;95573.66;;;4.02;94.73
40245;BME280;25963;42.694;23.600;2022-09-24T02:20:22;95591.59;;;4.05;95.22
40245;BME280;25963;42.694;23.600;2022-09-24T02:22:50;95593.53;;;4.03;96.08
40245;BME280;25963;42.694;23.600;2022-09-24T02:25:23;95593.25;;;3.98;96.99
40245;BME280;25963;42.694;23.600;2022-09-24T02:27:50;95589.50;;;3.93;97.37
40245;BME280;25963;42.694;23.600;2022-09-24T02:30:15;95593.59;;;3.79;98.27
40245;BME280;25963;42.694;23.600;2022-09-24T02:32:42;95602.72;;;3.83;97.85
40245;BME280;25963;42.694;23.600;2022-09-24T02:35:10;95601.09;;;3.90;98.01
40245;BME280;25963;42.694;23.600;2022-09-24T02:37:38;95605.66;;;3.96;97.01
40245;BME280;25963;42.694;23.600;2022-09-24T02:40:06;95609.88;;;3.97;97.10
40245;BME280;25963;42.694;23.600;2022-09-24T02:42:32;95604.50;;;3.99;96.55
40245;BME280;25963;42.694;23.600;2022-09-24T02:44:58;95605.78;;;4.03;96.55
40245;BME280;25963;42.694;23.600;2022-09-24T02:47:25;95603.03;;;3.96;96.93
40245;BME280;25963;42.694;23.600;2022-09-24T02:49:51;95598.16;;;3.93;95.15
40245;BME280;25963;42.694;23.600;2022-09-24T02:52:16;95607.78;;;3.93;94.56
40245;BME280;25963;42.694;23.600;2022-09-24T02:54:43;95617.88;;;3.96;93.52
40245;BME280;25963;42.694;23.600;2022-09-24T02:57:09;95620.16;;;3.99;92.60
40245;BME280;25963;42.694;23.600;2022-09-24T02:59:34;95627.84;;;3.76;92.79
40245;BME280;25963;42.694;23.600;2022-09-24T03:02:00;95626.69;;;3.78;92.96
40245;BME280;25963;42.694;23.600;2022-09-24T03:04:25;95626.03;;;3.84;92.73
40245;BME280;25963;42.694;23.600;2022-09-24T03:06:51;95629.47;;;3.77;92.57
40245;BME280;25963;42.694;23.600;2022-09-24T03:09:16;95625.56;;;3.73;92.82
40245;BME280;25963;42.694;23.600;2022-09-24T03:11:42;95622.63;;;3.59;94.12
40245;BME280;25963;42.694;23.600;2022-09-24T03:14:07;95626.53;;;3.55;93.74
40245;BME280;25963;42.694;23.600;2022-09-24T03:16:33;95622.47;;;3.61;94.01
40245;BME280;25963;42.694;23.600;2022-09-24T03:18:58;95622.63;;;3.59;93.98
40245;BME280;25963;42.694;23.600;2022-09-24T03:21:24;95619.53;;;3.48;94.58
40245;BME280;25963;42.694;23.600;2022-09-24T03:23:49;95624.91;;;3.54;95.45
40245;BME280;25963;42.694;23.600;2022-09-24T03:26:15;95622.13;;;3.56;96.42
40245;BME280;25963;42.694;23.600;2022-09-24T03:28:42;95624.75;;;3.48;97.23
40245;BME280;25963;42.694;23.600;2022-09-24T03:31:08;95624.09;;;3.54;97.74
40245;BME280;25963;42.694;23.600;2022-09-24T03:33:39;95633.06;;;3.59;97.51
40245;BME280;25963;42.694;23.600;2022-09-24T03:36:12;95630.63;;;3.66;97.28
40245;BME280;25963;42.694;23.600;2022-09-24T03:38:40;95629.00;;;3.57;97.37
40245;BME280;25963;42.694;23.600;2022-09-24T03:41:07;95637.63;;;3.65;97.33
40245;BME280;25963;42.694;23.600;2022-09-24T03:43:33;95628.19;;;3.56;96.66
40245;BME280;25963;42.694;23.600;2022-09-24T03:45:59;95636.31;;;3.61;96.46
40245;BME280;25963;42.694;23.600;2022-09-24T03:48:25;95639.25;;;3.58;96.76
40245;BME280;25963;42.694;23.600;2022-09-24T03:50:52;95642.34;;;3.54;96.93
40245;BME280;25963;42.694;23.600;2022-09-24T03:53:18;95646.72;;;3.37;97.38
40245;BME280;25963;42.694;23.600;2022-09-24T03:55:53;95640.50;;;3.22;96.62
40245;BME280;25963;42.694;23.600;2022-09-24T03:58:18;95649.47;;;3.19;97.18
40245;BME280;25963;42.694;23.600;2022-09-24T04:00:45;95646.69;;;3.29;96.40
40245;BME280;25963;42.694;23.600;2022-09-24T04:03:11;95653.06;;;3.26;95.82
40245;BME280;25963;42.694;23.600;2022-09-24T04:05:36;95652.53;;;3.06;96.05
40245;BME280;25963;42.694;23.600;2022-09-24T04:08:02;95650.06;;;3.05;96.44
40245;BME280;25963;42.694;23.600;2022-09-24T04:10:29;95654.44;;;2.96;97.43
40245;BME280;25963;42.694;23.600;2022-09-24T04:12:55;95663.28;;;3.03;97.19
40245;BME280;25963;42.694;23.600;2022-09-24T04:15:21;95669.75;;;2.91;97.28
40245;BME280;25963;42.694;23.600;2022-09-24T04:17:55;95656.41;;;2.94;96.97
40245;BME280;25963;42.694;23.600;2022-09-24T04:20:23;95666.34;;;2.90;97.33
40245;BME280;25963;42.694;23.600;2022-09-24T04:22:50;95667.78;;;2.85;97.35
40245;BME280;25963;42.694;23.600;2022-09-24T04:25:16;95674.41;;;2.79;97.54
40245;BME280;25963;42.694;23.600;2022-09-24T04:27:43;95675.06;;;2.81;99.04
40245;BME280;25963;42.694;23.600;2022-09-24T04:30:10;95681.66;;;2.93;99.55
40245;BME280;25963;42.694;23.600;2022-09-24T04:32:37;95671.00;;;2.87;100.00
40245;BME280;25963;42.694;23.600;2022-09-24T04:35:03;95668.75;;;2.92;100.00
40245;BME280;25963;42.694;23.600;2022-09-24T04:37:28;95674.34;;;2.97;100.00
40245;BME280;25963;42.694;23.600;2022-09-24T04:39:54;95676.63;;;3.00;100.00
40245;BME280;25963;42.694;23.600;2022-09-24T04:42:19;95668.97;;;3.07;100.00
40245;BME280;25963;42.694;23.600;2022-09-24T04:44:45;95671.16;;;3.28;100.00
40245;BME280;25963;42.694;23.600;2022-09-24T04:47:13;95676.72;;;3.49;100.00
40245;BME280;25963;42.694;23.600;2022-09-24T04:49:39;95676.09;;;4.21;98.94
40245;BME280;25963;42.694;23.600;2022-09-24T04:52:04;95674.13;;;5.26;92.01
40245;BME280;25963;42.694;23.600;2022-09-24T04:54:30;95671.81;;;5.85;86.95
40245;BME280;25963;42.694;23.600;2022-09-24T04:56:56;95671.16;;;6.29;83.03
40245;BME280;25963;42.694;23.600;2022-09-24T04:59:22;95669.88;;;7.14;77.18
40245;BME280;25963;42.694;23.600;2022-09-24T05:01:47;95667.25;;;8.08;72.02
40245;BME280;25963;42.694;23.600;2022-09-24T05:04:13;95675.56;;;8.96;67.48
40245;BME280;25963;42.694;23.600;2022-09-24T05:06:38;95671.81;;;9.67;64.14
40245;BME280;25963;42.694;23.600;2022-09-24T05:09:04;95671.06;;;10.19;61.20
40245;BME280;25963;42.694;23.600;2022-09-24T05:11:29;95654.44;;;10.52;59.38
40245;BME280;25963;42.694;23.600;2022-09-24T05:13:54;95665.16;;;10.90;58.25
40245;BME280;25963;42.694;23.600;2022-09-24T05:16:20;95658.00;;;11.11;57.57
40245;BME280;25963;42.694;23.600;2022-09-24T05:18:46;95652.63;;;11.37;56.88
40245;BME280;25963;42.694;23.600;2022-09-24T05:21:12;95657.59;;;11.97;55.22
40245;BME280;25963;42.694;23.600;2022-09-24T05:23:37;95667.38;;;12.22;55.03
40245;BME280;25963;42.694;23.600;2022-09-24T05:26:02;95662.31;;;12.70;53.75
40245;BME280;25963;42.694;23.600;2022-09-24T05:28:47;95666.97;;;13.12;52.57
40245;BME280;25963;42.694;23.600;2022-09-24T05:31:12;95664.25;;;13.18;52.02
40245;BME280;25963;42.694;23.600;2022-09-24T05:33:38;95662.38;;;13.44;51.68
40245;BME280;25963;42.694;23.600;2022-09-24T05:36:03;95664.28;;;13.55;51.62
40245;BME280;25963;42.694;23.600;2022-09-24T05:38:29;95664.34;;;13.48;51.66
40245;BME280;25963;42.694;23.600;2022-09-24T05:40:54;95659.25;;;13.65;51.74
40245;BME280;25963;42.694;23.600;2022-09-24T05:43:20;95665.31;;;13.36;52.68
40245;BME280;25963;42.694;23.600;2022-09-24T05:45:46;95668.75;;;13.18;53.82
40245;BME280;25963;42.694;23.600;2022-09-24T05:48:14;95667.06;;;13.23;55.23
40245;BME280;25963;42.694;23.600;2022-09-24T05:50:40;95670.88;;;13.09;55.11
40245;BME280;25963;42.694;23.600;2022-09-24T05:53:06;95670.66;;;12.92;56.14
40245;BME280;25963;42.694;23.600;2022-09-24T05:55:31;95668.81;;;12.93;56.03
40245;BME280;25963;42.694;23.600;2022-09-24T05:58:05;95664.75;;;12.47;58.21
40245;BME280;25963;42.694;23.600;2022-09-24T06:00:32;95672.97;;;13.26;57.32
40245;BME280;25963;42.694;23.600;2022-09-24T06:03:11;95671.56;;;13.05;57.13
40245;BME280;25963;42.694;23.600;2022-09-24T06:05:38;95655.28;;;13.19;56.42
40245;BME280;25963;42.694;23.600;2022-09-24T06:08:04;95674.78;;;13.62;58.14
40245;BME280;25963;42.694;23.600;2022-09-24T06:10:32;95669.56;;;13.55;55.38
40245;BME280;25963;42.694;23.600;2022-09-24T06:12:57;95673.06;;;13.37;59.16
40245;BME280;25963;42.694;23.600;2022-09-24T06:15:23;95673.00;;;13.74;58.25
40245;BME280;25963;42.694;23.600;2022-09-24T06:17:52;95671.69;;;13.65;57.27
40245;BME280;25963;42.694;23.600;2022-09-24T06:20:19;95675.94;;;13.66;56.94
40245;BME280;25963;42.694;23.600;2022-09-24T06:22:44;95677.59;;;13.79;58.18
40245;BME280;25963;42.694;23.600;2022-09-24T06:25:09;95670.38;;;13.86;58.09
40245;BME280;25963;42.694;23.600;2022-09-24T06:27:35;95682.59;;;13.87;56.04
40245;BME280;25963;42.694;23.600;2022-09-24T06:30:00;95684.00;;;13.59;57.84
40245;BME280;25963;42.694;23.600;2022-09-24T06:32:26;95675.75;;;13.67;61.68
40245;BME280;25963;42.694;23.600;2022-09-24T06:34:51;95685.28;;;13.68;59.09
40245;BME280;25963;42.694;23.600;2022-09-24T06:37:17;95680.00;;;13.99;59.99
40245;BME280;25963;42.694;23.600;2022-09-24T06:39:42;95684.09;;;14.13;57.21
40245;BME280;25963;42.694;23.600;2022-09-24T06:42:08;95671.53;;;13.90;58.84
40245;BME280;25963;42.694;23.600;2022-09-24T06:44:34;95675.50;;;13.99;60.67
40245;BME280;25963;42.694;23.600;2022-09-24T06:47:00;95683.13;;;14.07;55.98
40245;BME280;25963;42.694;23.600;2022-09-24T06:49:26;95680.72;;;13.76;55.93
40245;BME280;25963;42.694;23.600;2022-09-24T06:51:55;95683.50;;;13.81;60.32
40245;BME280;25963;42.694;23.600;2022-09-24T06:54:21;95684.84;;;13.72;65.81
40245;BME280;25963;42.694;23.600;2022-09-24T06:56:47;95683.34;;;13.94;61.06
40245;BME280;25963;42.694;23.600;2022-09-24T06:59:12;95675.44;;;14.18;64.43
40245;BME280;25963;42.694;23.600;2022-09-24T07:01:38;95670.97;;;14.30;63.98
40245;BME280;25963;42.694;23.600;2022-09-24T07:04:03;95669.09;;;14.19;55.66
40245;BME280;25963;42.694;23.600;2022-09-24T07:06:28;95680.31;;;14.32;61.73
40245;BME280;25963;42.694;23.600;2022-09-24T07:09:14;95677.44;;;14.34;56.21
40245;BME280;25963;42.694;23.600;2022-09-24T07:11:39;95669.38;;;14.41;57.70
40245;BME280;25963;42.694;23.600;2022-09-24T07:14:06;95669.16;;;14.42;59.06
40245;BME280;25963;42.694;23.600;2022-09-24T07:16:31;95676.34;;;14.53;58.93
40245;BME280;25963;42.694;23.600;2022-09-24T07:18:56;95674.41;;;14.72;57.83
40245;BME280;25963;42.694;23.600;2022-09-24T07:21:25;95672.66;;;14.66;58.29
40245;BME280;25963;42.694;23.600;2022-09-24T07:23:51;95675.88;;;14.80;58.97
40245;BME280;25963;42.694;23.600;2022-09-24T07:26:16;95677.41;;;14.88;53.50
40245;BME280;25963;42.694;23.600;2022-09-24T07:28:41;95672.91;;;14.88;57.31
40245;BME280;25963;42.694;23.600;2022-09-24T07:31:07;95670.25;;;14.76;54.56
40245;BME280;25963;42.694;23.600;2022-09-24T07:33:33;95681.91;;;14.75;57.68
40245;BME280;25963;42.694;23.600;2022-09-24T07:36:03;95669.56;;;14.93;55.65
40245;BME280;25963;42.694;23.600;2022-09-24T07:38:30;95673.56;;;15.07;57.24
40245;BME280;25963;42.694;23.600;2022-09-24T07:40:56;95666.38;;;15.19;56.09
40245;BME280;25963;42.694;23.600;2022-09-24T07:43:23;95660.38;;;16.05;53.33
40245;BME280;25963;42.694;23.600;2022-09-24T07:45:48;95659.03;;;16.53;51.26
40245;BME280;25963;42.694;23.600;2022-09-24T07:48:14;95661.94;;;16.68;53.19
40245;BME280;25963;42.694;23.600;2022-09-24T07:50:40;95652.03;;;16.47;52.13
40245;BME280;25963;42.694;23.600;2022-09-24T07:53:09;95657.56;;;16.96;51.03
40245;BME280;25963;42.694;23.600;2022-09-24T07:55:35;95658.72;;;16.83;48.25
40245;BME280;25963;42.694;23.600;2022-09-24T07:58:06;95662.72;;;16.01;54.91
40245;BME280;25963;42.694;23.600;2022-09-24T08:00:32;95655.09;;;16.22;55.23
40245;BME280;25963;42.694;23.600;2022-09-24T08:02:58;95649.03;;;16.43;51.09
40245;BME280;25963;42.694;23.600;2022-09-24T08:05:23;95653.50;;;16.54;49.20
40245;BME280;25963;42.694;23.600;2022-09-24T08:07:51;95651.75;;;16.48;54.60
40245;BME280;25963;42.694;23.600;2022-09-24T08:10:17;95648.63;;;16.68;52.05
40245;BME280;25963;42.694;23.600;2022-09-24T08:12:42;95651.84;;;16.19;50.61
40245;BME280;25963;42.694;23.600;2022-09-24T08:15:08;95656.97;;;16.09;49.81
40245;BME280;25963;42.694;23.600;2022-09-24T08:17:33;95656.03;;;16.32;49.94
40245;BME280;25963;42.694;23.600;2022-09-24T08:19:59;95649.13;;;16.31;50.65
40245;BME280;25963;42.694;23.600;2022-09-24T08:22:24;95644.09;;;16.69;51.17
40245;BME280;25963;42.694;23.600;2022-09-24T08:24:50;95642.19;;;16.64;49.42
40245;BME280;25963;42.694;23.600;2022-09-24T08:27:16;95645.88;;;16.97;48.95
40245;BME280;25963;42.694;23.600;2022-09-24T08:29:41;95641.03;;;16.94;45.75
40245;BME280;25963;42.694;23.600;2022-09-24T08:32:07;95640.16;;;16.54;43.84
40245;BME280;25963;42.694;23.600;2022-09-24T08:34:32;95641.53;;;16.91;44.62
40245;BME280;25963;42.694;23.600;2022-09-24T08:37:03;95641.06;;;17.38;46.60
40245;BME280;25963;42.694;23.600;2022-09-24T08:39:30;95639.25;;;17.43;46.30
40245;BME280;25963;42.694;23.600;2022-09-24T08:42:03;95634.38;;;17.57;44.19
40245;BME280;25963;42.694;23.600;2022-09-24T08:44:44;95628.56;;;17.38;43.43
40245;BME280;25963;42.694;23.600;2022-09-24T08:50:17;95634.38;;;17.35;43.79
40245;BME280;25963;42.694;23.600;2022-09-24T08:55:49;95629.84;;;18.39;44.15
40245;BME280;25963;42.694;23.600;2022-09-24T08:58:36;95631.47;;;18.40;39.76
40245;BME280;25963;42.694;23.600;2022-09-24T09:11:02;95614.78;;;18.97;39.08
40245;BME280;25963;42.694;23.600;2022-09-24T09:13:53;95611.03;;;18.98;38.99
40245;BME280;25963;42.694;23.600;2022-09-24T09:16:34;95605.22;;;19.06;43.09
40245;BME280;25963;42.694;23.600;2022-09-24T09:19:08;95602.34;;;19.23;40.45
40245;BME280;25963;42.694;23.600;2022-09-24T09:21:40;95599.00;;;19.58;40.04
40245;BME280;25963;42.694;23.600;2022-09-24T09:24:16;95593.97;;;19.72;38.37
40245;BME280;25963;42.694;23.600;2022-09-24T09:26:45;95599.13;;;19.99;38.34
40245;BME280;25963;42.694;23.600;2022-09-24T09:29:12;95586.81;;;20.09;37.66
40245;BME280;25963;42.694;23.600;2022-09-24T09:34:46;95592.44;;;20.12;37.74
40245;BME280;25963;42.694;23.600;2022-09-24T09:40:32;95576.66;;;20.57;36.74
40245;BME280;25963;42.694;23.600;2022-09-24T09:43:01;95584.66;;;20.41;34.25
40245;BME280;25963;42.694;23.600;2022-09-24T09:45:38;95579.88;;;20.54;37.59
40245;BME280;25963;42.694;23.600;2022-09-24T09:48:07;95571.28;;;20.41;35.26
40245;BME280;25963;42.694;23.600;2022-09-24T09:50:43;95575.03;;;20.76;36.50
40245;BME280;25963;42.694;23.600;2022-09-24T09:53:20;95567.47;;;20.88;34.23
40245;BME280;25963;42.694;23.600;2022-09-24T09:55:59;95560.53;;;20.51;33.66
40245;BME280;25963;42.694;23.600;2022-09-24T09:58:27;95552.81;;;20.55;32.65
40245;BME280;25963;42.694;23.600;2022-09-24T10:01:06;95544.69;;;20.86;33.22
40245;BME280;25963;42.694;23.600;2022-09-24T10:06:13;95543.63;;;20.82;32.40
40245;BME280;25963;42.694;23.600;2022-09-24T10:08:38;95539.63;;;20.74;29.83
40245;BME280;25963;42.694;23.600;2022-09-24T10:11:13;95543.09;;;20.80;32.42
40245;BME280;25963;42.694;23.600;2022-09-24T10:13:39;95533.63;;;21.08;32.02
40245;BME280;25963;42.694;23.600;2022-09-24T10:16:08;95531.41;;;21.20;30.79
40245;BME280;25963;42.694;23.600;2022-09-24T10:18:48;95533.63;;;21.08;32.96
40245;BME280;25963;42.694;23.600;2022-09-24T10:21:29;95519.09;;;21.19;30.40
40245;BME280;25963;42.694;23.600;2022-09-24T10:23:59;95521.84;;;20.98;32.97
40245;BME280;25963;42.694;23.600;2022-09-24T10:26:39;95515.72;;;20.88;32.16
40245;BME280;25963;42.694;23.600;2022-09-24T10:29:21;95514.31;;;21.06;31.51
40245;BME280;25963;42.694;23.600;2022-09-24T10:32:17;95517.91;;;21.46;33.02
40245;BME280;25963;42.694;23.600;2022-09-24T10:35:02;95517.13;;;21.45;32.87
40245;BME280;25963;42.694;23.600;2022-09-24T10:37:30;95518.22;;;21.39;31.94
40245;BME280;25963;42.694;23.600;2022-09-24T10:39:57;95513.78;;;21.63;31.31
40245;BME280;25963;42.694;23.600;2022-09-24T10:42:25;95510.66;;;21.85;31.71
40245;BME280;25963;42.694;23.600;2022-09-24T10:44:51;95515.78;;;21.42;30.00
40245;BME280;25963;42.694;23.600;2022-09-24T10:50:45;95516.22;;;21.60;32.49
40245;BME280;25963;42.694;23.600;2022-09-24T11:01:55;95511.13;;;20.98;31.58
40245;BME280;25963;42.694;23.600;2022-09-24T11:12:16;95515.28;;;21.30;32.05
40245;BME280;25963;42.694;23.600;2022-09-24T11:17:50;95518.59;;;21.07;32.33
40245;BME280;25963;42.694;23.600;2022-09-24T11:20:43;95517.59;;;20.92;32.74
40245;BME280;25963;42.694;23.600;2022-09-24T11:48:39;95478.69;;;21.50;28.71
40245;BME280;25963;42.694;23.600;2022-09-24T11:59:46;95460.41;;;21.57;30.23
40245;BME280;25963;42.694;23.600;2022-09-24T12:02:40;95465.44;;;21.98;28.49
40245;BME280;25963;42.694;23.600;2022-09-24T12:05:19;95456.88;;;21.96;28.62
40245;BME280;25963;42.694;23.600;2022-09-24T12:07:54;95446.84;;;22.06;27.60
40245;BME280;25963;42.694;23.600;2022-09-24T12:10:27;95441.28;;;21.98;28.83
40245;BME280;25963;42.694;23.600;2022-09-24T12:13:12;95443.97;;;21.98;29.07
40245;BME280;25963;42.694;23.600;2022-09-24T12:16:01;95442.06;;;21.98;28.53
40245;BME280;25963;42.694;23.600;2022-09-24T12:18:34;95440.56;;;22.21;28.77
40245;BME280;25963;42.694;23.600;2022-09-24T12:21:09;95439.19;;;22.24;27.90
40245;BME280;25963;42.694;23.600;2022-09-24T12:23:40;95445.44;;;22.14;27.75
40245;BME280;25963;42.694;23.600;2022-09-24T12:26:07;95439.75;;;22.21;28.20
40245;BME280;25963;42.694;23.600;2022-09-24T12:31:53;95439.81;;;22.40;25.42
40245;BME280;25963;42.694;23.600;2022-09-24T12:37:34;95444.03;;;22.22;26.34
40245;BME280;25963;42.694;23.600;2022-09-24T12:42:46;95443.09;;;21.73;26.93
40245;BME280;25963;42.694;23.600;2022-09-24T12:45:17;95440.53;;;21.58;28.88
40245;BME280;25963;42.694;23.600;2022-09-24T12:47:49;95445.56;;;21.20;28.44
40245;BME280;25963;42.694;23.600;2022-09-24T12:50:28;95443.13;;;21.24;28.74
40245;BME280;25963;42.694;23.600;2022-09-24T12:52:55;95448.81;;;21.12;29.03
40245;BME280;25963;42.694;23.600;2022-09-24T12:55:23;95437.84;;;21.13;30.60
40245;BME280;25963;42.694;23.600;2022-09-24T12:58:02;95437.97;;;21.32;29.39
40245;BME280;25963;42.694;23.600;2022-09-24T13:02:58;95435.72;;;21.55;28.98
40245;BME280;25963;42.694;23.600;2022-09-24T13:05:28;95432.44;;;21.63;28.63
40245;BME280;25963;42.694;23.600;2022-09-24T13:10:34;95422.75;;;21.67;29.60
40245;BME280;25963;42.694;23.600;2022-09-24T13:13:02;95423.22;;;21.74;30.48
40245;BME280;25963;42.694;23.600;2022-09-24T13:15:38;95418.00;;;21.88;29.87
40245;BME280;25963;42.694;23.600;2022-09-24T13:20:33;95413.72;;;21.87;29.38
40245;BME280;25963;42.694;23.600;2022-09-24T13:23:28;95410.78;;;21.83;29.10
40245;BME280;25963;42.694;23.600;2022-09-24T13:26:03;95406.94;;;21.95;29.22
40245;BME280;25963;42.694;23.600;2022-09-24T13:31:16;95402.16;;;22.16;28.75
40245;BME280;25963;42.694;23.600;2022-09-24T13:33:46;95404.63;;;21.83;28.52
40245;BME280;25963;42.694;23.600;2022-09-24T13:36:17;95406.06;;;21.70;30.29
40245;BME280;25963;42.694;23.600;2022-09-24T13:38:53;95402.22;;;21.47;28.54
40245;BME280;25963;42.694;23.600;2022-09-24T13:44:42;95399.34;;;21.73;29.46
40245;BME280;25963;42.694;23.600;2022-09-24T13:49:43;95386.34;;;21.51;28.90
40245;BME280;25963;42.694;23.600;2022-09-24T13:52:34;95387.53;;;21.69;29.01
40245;BME280;25963;42.694;23.600;2022-09-24T13:55:10;95396.94;;;21.71;29.05
40245;BME280;25963;42.694;23.600;2022-09-24T13:57:44;95386.00;;;21.92;28.52
40245;BME280;25963;42.694;23.600;2022-09-24T14:02:37;95380.06;;;21.95;28.12
40245;BME280;25963;42.694;23.600;2022-09-24T14:05:06;95372.63;;;21.86;28.26
40245;BME280;25963;42.694;23.600;2022-09-24T14:07:33;95374.00;;;21.84;28.52
40245;BME280;25963;42.694;23.600;2022-09-24T14:10:11;95367.25;;;21.86;27.87
40245;BME280;25963;42.694;23.600;2022-09-24T14:12:37;95373.06;;;21.99;27.86
40245;BME280;25963;42.694;23.600;2022-09-24T14:15:12;95365.19;;;21.78;28.62
40245;BME280;25963;42.694;23.600;2022-09-24T14:17:38;95357.50;;;21.32;27.95
40245;BME280;25963;42.694;23.600;2022-09-24T14:20:04;95367.16;;;21.33;28.35
40245;BME280;25963;42.694;23.600;2022-09-24T14:22:36;95369.78;;;21.43;29.08
40245;BME280;25963;42.694;23.600;2022-09-24T14:25:07;95363.50;;;21.58;29.38
40245;BME280;25963;42.694;23.600;2022-09-24T14:27:36;95369.66;;;21.59;30.22
40245;BME280;25963;42.694;23.600;2022-09-24T14:30:19;95374.69;;;21.36;30.08
40245;BME280;25963;42.694;23.600;2022-09-24T14:32:50;95372.22;;;21.35;30.41
40245;BME280;25963;42.694;23.600;2022-09-24T14:35:31;95362.94;;;21.22;30.07
40245;BME280;25963;42.694;23.600;2022-09-24T14:38:12;95372.69;;;21.08;30.00
40245;BME280;25963;42.694;23.600;2022-09-24T14:41:04;95367.97;;;20.94;29.71
40245;BME280;25963;42.694;23.600;2022-09-24T14:43:42;95366.97;;;20.80;31.00
40245;BME280;25963;42.694;23.600;2022-09-24T14:48:37;95360.72;;;20.35;31.69
40245;BME280;25963;42.694;23.600;2022-09-24T14:51:27;95370.88;;;20.38;31.25
40245;BME280;25963;42.694;23.600;2022-09-24T14:56:44;95361.25;;;20.32;31.29
40245;BME280;25963;42.694;23.600;2022-09-24T14:59:27;95365.53;;;20.28;32.54
40245;BME280;25963;42.694;23.600;2022-09-24T15:02:09;95363.94;;;20.37;32.32
40245;BME280;25963;42.694;23.600;2022-09-24T15:04:40;95367.38;;;20.43;32.06
40245;BME280;25963;42.694;23.600;2022-09-24T15:07:21;95360.09;;;20.48;33.08
40245;BME280;25963;42.694;23.600;2022-09-24T15:09:50;95356.41;;;20.39;33.64
40245;BME280;25963;42.694;23.600;2022-09-24T15:12:34;95357.47;;;20.43;35.21
40245;BME280;25963;42.694;23.600;2022-09-24T15:17:50;95362.84;;;20.38;33.57
40245;BME280;25963;42.694;23.600;2022-09-24T15:20:16;95373.53;;;20.43;33.21
40245;BME280;25963;42.694;23.600;2022-09-24T15:22:41;95370.88;;;20.43;33.94